sensor_id;sensor_type;location;lat;lon;timestamp;P1;durP1;ratioP1;P2;durP2;ratioP2
8825;SDS011;4449;50.872;4.714;2022-08-03T00:02:00;2.45;;;1.70;;
8825;SDS011;4449;50.872;4.714;2022-08-03T00:04:29;2.20;;;2.00;;
8825;SDS011;4449;50.872;4.714;2022-08-03T00:06:56;2.35;;;2.05;;
8825;SDS011;4449;50.872;4.714;2022-08-03T00:09:29;2.40;;;1.90;;
8825;SDS011;4449;50.872;4.714;2022-08-03T00:11:57;3.58;;;1.80;;
8825;SDS011;4449;50.872;4.714;2022-08-03T00:14:24;2.25;;;2.15;;
8825;SDS011;4449;50.872;4.714;2022-08-03T00:16:52;3.30;;;1.90;;
8825;SDS011;4449;50.872;4.714;2022-08-03T00:19:20;3.83;;;2.20;;
8825;SDS011;4449;50.872;4.714;2022-08-03T00:21:48;4.43;;;2.13;;
8825;SDS011;4449;50.872;4.714;2022-08-03T00:24:15;3.22;;;1.90;;
8825;SDS011;4449;50.872;4.714;2022-08-03T00:26:45;2.80;;;2.10;;
8825;SDS011;4449;50.872;4.714;2022-08-03T00:29:12;3.90;;;2.50;;
8825;SDS011;4449;50.872;4.714;2022-08-03T00:31:40;3.35;;;1.75;;
8825;SDS011;4449;50.872;4.714;2022-08-03T00:34:08;2.05;;;1.85;;
8825;SDS011;4449;50.872;4.714;2022-08-03T00:36:35;2.38;;;1.98;;
8825;SDS011;4449;50.872;4.714;2022-08-03T00:39:03;2.70;;;2.10;;
8825;SDS011;4449;50.872;4.714;2022-08-03T00:41:31;3.80;;;2.03;;
8825;SDS011;4449;50.872;4.714;2022-08-03T00:44:00;2.17;;;1.98;;
8825;SDS011;4449;50.872;4.714;2022-08-03T00:46:28;3.75;;;1.85;;
8825;SDS011;4449;50.872;4.714;2022-08-03T00:48:55;2.80;;;1.85;;
8825;SDS011;4449;50.872;4.714;2022-08-03T00:51:23;2.70;;;2.00;;
8825;SDS011;4449;50.872;4.714;2022-08-03T00:53:51;2.45;;;1.90;;
8825;SDS011;4449;50.872;4.714;2022-08-03T00:56:22;2.38;;;1.95;;
8825;SDS011;4449;50.872;4.714;2022-08-03T00:58:49;3.40;;;1.75;;
8825;SDS011;4449;50.872;4.714;2022-08-03T01:01:19;1.98;;;1.80;;
8825;SDS011;4449;50.872;4.714;2022-08-03T01:03:47;4.53;;;1.85;;
8825;SDS011;4449;50.872;4.714;2022-08-03T01:06:15;2.03;;;1.90;;
8825;SDS011;4449;50.872;4.714;2022-08-03T01:08:45;2.22;;;1.80;;
8825;SDS011;4449;50.872;4.714;2022-08-03T01:11:16;2.97;;;1.70;;
8825;SDS011;4449;50.872;4.714;2022-08-03T01:13:47;2.15;;;1.70;;
8825;SDS011;4449;50.872;4.714;2022-08-03T01:16:22;2.00;;;1.90;;
8825;SDS011;4449;50.872;4.714;2022-08-03T01:18:52;2.23;;;1.83;;
8825;SDS011;4449;50.872;4.714;2022-08-03T01:21:23;1.88;;;1.50;;
8825;SDS011;4449;50.872;4.714;2022-08-03T01:23:55;2.20;;;1.97;;
8825;SDS011;4449;50.872;4.714;2022-08-03T01:26:36;1.75;;;1.65;;
8825;SDS011;4449;50.872;4.714;2022-08-03T01:29:12;2.10;;;1.90;;
8825;SDS011;4449;50.872;4.714;2022-08-03T01:31:48;2.78;;;1.50;;
8825;SDS011;4449;50.872;4.714;2022-08-03T01:34:18;1.55;;;1.45;;
8825;SDS011;4449;50.872;4.714;2022-08-03T01:36:48;1.63;;;1.60;;
8825;SDS011;4449;50.872;4.714;2022-08-03T01:39:17;2.13;;;1.85;;
8825;SDS011;4449;50.872;4.714;2022-08-03T01:41:47;2.10;;;1.70;;
8825;SDS011;4449;50.872;4.714;2022-08-03T01:44:15;1.70;;;1.60;;
8825;SDS011;4449;50.872;4.714;2022-08-03T01:46:43;2.50;;;1.65;;
8825;SDS011;4449;50.872;4.714;2022-08-03T01:49:14;2.00;;;1.85;;
8825;SDS011;4449;50.872;4.714;2022-08-03T01:51:43;1.88;;;1.77;;
8825;SDS011;4449;50.872;4.714;2022-08-03T01:54:11;2.17;;;1.73;;
8825;SDS011;4449;50.872;4.714;2022-08-03T01:56:40;3.45;;;1.83;;
8825;SDS011;4449;50.872;4.714;2022-08-03T01:59:09;3.25;;;1.58;;
8825;SDS011;4449;50.872;4.714;2022-08-03T02:01:38;1.95;;;1.70;;
8825;SDS011;4449;50.872;4.714;2022-08-03T02:04:07;3.67;;;1.85;;
8825;SDS011;4449;50.872;4.714;2022-08-03T02:06:36;1.43;;;1.33;;
8825;SDS011;4449;50.872;4.714;2022-08-03T02:09:05;1.85;;;1.60;;
8825;SDS011;4449;50.872;4.714;2022-08-03T02:11:34;4.45;;;1.70;;
8825;SDS011;4449;50.872;4.714;2022-08-03T02:14:02;2.42;;;1.60;;
8825;SDS011;4449;50.872;4.714;2022-08-03T02:16:31;1.75;;;1.55;;
8825;SDS011;4449;50.872;4.714;2022-08-03T02:19:00;2.25;;;1.88;;
8825;SDS011;4449;50.872;4.714;2022-08-03T02:21:29;2.38;;;1.50;;
8825;SDS011;4449;50.872;4.714;2022-08-03T02:23:59;1.83;;;1.50;;
8825;SDS011;4449;50.872;4.714;2022-08-03T02:26:28;1.83;;;1.73;;
8825;SDS011;4449;50.872;4.714;2022-08-03T02:28:59;2.53;;;2.03;;
8825;SDS011;4449;50.872;4.714;2022-08-03T02:31:29;2.28;;;1.98;;
8825;SDS011;4449;50.872;4.714;2022-08-03T02:34:00;2.00;;;1.67;;
8825;SDS011;4449;50.872;4.714;2022-08-03T02:36:28;1.67;;;1.58;;
8825;SDS011;4449;50.872;4.714;2022-08-03T02:38:57;3.03;;;1.98;;
8825;SDS011;4449;50.872;4.714;2022-08-03T02:41:28;1.73;;;1.60;;
8825;SDS011;4449;50.872;4.714;2022-08-03T02:43:57;2.25;;;1.85;;
8825;SDS011;4449;50.872;4.714;2022-08-03T02:46:27;3.53;;;1.95;;
8825;SDS011;4449;50.872;4.714;2022-08-03T02:48:55;2.80;;;1.90;;
8825;SDS011;4449;50.872;4.714;2022-08-03T02:51:23;3.43;;;1.73;;
8825;SDS011;4449;50.872;4.714;2022-08-03T02:53:54;1.60;;;1.50;;
8825;SDS011;4449;50.872;4.714;2022-08-03T02:56:23;3.30;;;1.88;;
8825;SDS011;4449;50.872;4.714;2022-08-03T02:58:53;1.83;;;1.73;;
8825;SDS011;4449;50.872;4.714;2022-08-03T03:01:21;2.90;;;2.10;;
8825;SDS011;4449;50.872;4.714;2022-08-03T03:03:49;2.00;;;1.80;;
8825;SDS011;4449;50.872;4.714;2022-08-03T03:06:18;2.03;;;1.75;;
8825;SDS011;4449;50.872;4.714;2022-08-03T03:08:46;2.40;;;1.90;;
8825;SDS011;4449;50.872;4.714;2022-08-03T03:11:15;2.10;;;1.90;;
8825;SDS011;4449;50.872;4.714;2022-08-03T03:13:43;2.15;;;1.45;;
8825;SDS011;4449;50.872;4.714;2022-08-03T03:16:14;1.85;;;1.75;;
8825;SDS011;4449;50.872;4.714;2022-08-03T03:18:42;1.83;;;1.73;;
8825;SDS011;4449;50.872;4.714;2022-08-03T03:21:10;2.65;;;1.80;;
8825;SDS011;4449;50.872;4.714;2022-08-03T03:23:39;2.37;;;1.93;;
8825;SDS011;4449;50.872;4.714;2022-08-03T03:26:07;3.40;;;2.10;;
8825;SDS011;4449;50.872;4.714;2022-08-03T03:28:35;2.88;;;1.73;;
8825;SDS011;4449;50.872;4.714;2022-08-03T03:31:03;2.22;;;2.03;;
8825;SDS011;4449;50.872;4.714;2022-08-03T03:33:33;2.25;;;1.80;;
8825;SDS011;4449;50.872;4.714;2022-08-03T03:36:01;2.30;;;1.90;;
8825;SDS011;4449;50.872;4.714;2022-08-03T03:38:31;1.97;;;1.83;;
8825;SDS011;4449;50.872;4.714;2022-08-03T03:40:59;2.25;;;1.90;;
8825;SDS011;4449;50.872;4.714;2022-08-03T03:43:26;2.13;;;1.92;;
8825;SDS011;4449;50.872;4.714;2022-08-03T03:45:55;2.25;;;2.05;;
8825;SDS011;4449;50.872;4.714;2022-08-03T03:48:23;1.90;;;1.90;;
8825;SDS011;4449;50.872;4.714;2022-08-03T03:50:52;1.80;;;1.70;;
8825;SDS011;4449;50.872;4.714;2022-08-03T03:53:21;2.45;;;2.25;;
8825;SDS011;4449;50.872;4.714;2022-08-03T03:55:50;5.47;;;2.10;;
8825;SDS011;4449;50.872;4.714;2022-08-03T03:58:18;1.98;;;1.77;;
8825;SDS011;4449;50.872;4.714;2022-08-03T04:00:46;2.10;;;2.00;;
8825;SDS011;4449;50.872;4.714;2022-08-03T04:03:14;2.40;;;2.00;;
8825;SDS011;4449;50.872;4.714;2022-08-03T04:05:42;2.58;;;2.10;;
8825;SDS011;4449;50.872;4.714;2022-08-03T04:08:28;2.00;;;1.90;;
8825;SDS011;4449;50.872;4.714;2022-08-03T04:11:25;2.35;;;2.15;;
8825;SDS011;4449;50.872;4.714;2022-08-03T04:13:54;2.22;;;2.05;;
8825;SDS011;4449;50.872;4.714;2022-08-03T04:16:23;2.15;;;1.90;;
8825;SDS011;4449;50.872;4.714;2022-08-03T04:18:52;2.72;;;2.15;;
8825;SDS011;4449;50.872;4.714;2022-08-03T04:21:21;4.78;;;2.40;;
8825;SDS011;4449;50.872;4.714;2022-08-03T04:23:51;2.80;;;2.20;;
8825;SDS011;4449;50.872;4.714;2022-08-03T04:26:21;2.72;;;1.98;;
8825;SDS011;4449;50.872;4.714;2022-08-03T04:28:50;4.53;;;2.10;;
8825;SDS011;4449;50.872;4.714;2022-08-03T04:31:20;2.60;;;2.28;;
8825;SDS011;4449;50.872;4.714;2022-08-03T04:33:48;2.15;;;1.90;;
8825;SDS011;4449;50.872;4.714;2022-08-03T04:36:18;2.55;;;2.17;;
8825;SDS011;4449;50.872;4.714;2022-08-03T04:38:51;2.40;;;1.80;;
8825;SDS011;4449;50.872;4.714;2022-08-03T04:41:19;2.28;;;1.95;;
8825;SDS011;4449;50.872;4.714;2022-08-03T04:43:49;4.15;;;1.85;;
8825;SDS011;4449;50.872;4.714;2022-08-03T04:46:17;2.30;;;2.15;;
8825;SDS011;4449;50.872;4.714;2022-08-03T04:48:46;2.20;;;2.00;;
8825;SDS011;4449;50.872;4.714;2022-08-03T04:51:14;4.00;;;2.08;;
8825;SDS011;4449;50.872;4.714;2022-08-03T04:53:42;2.58;;;1.98;;
8825;SDS011;4449;50.872;4.714;2022-08-03T04:56:11;4.70;;;2.10;;
8825;SDS011;4449;50.872;4.714;2022-08-03T04:58:39;2.97;;;1.90;;
8825;SDS011;4449;50.872;4.714;2022-08-03T05:01:06;3.45;;;2.25;;
8825;SDS011;4449;50.872;4.714;2022-08-03T05:03:34;2.67;;;2.10;;
8825;SDS011;4449;50.872;4.714;2022-08-03T05:06:02;3.55;;;2.17;;
8825;SDS011;4449;50.872;4.714;2022-08-03T05:08:30;2.25;;;2.15;;
8825;SDS011;4449;50.872;4.714;2022-08-03T05:10:58;2.13;;;1.92;;
8825;SDS011;4449;50.872;4.714;2022-08-03T05:13:27;3.80;;;2.35;;
8825;SDS011;4449;50.872;4.714;2022-08-03T05:15:55;3.67;;;2.47;;
8825;SDS011;4449;50.872;4.714;2022-08-03T05:18:23;3.67;;;2.20;;
8825;SDS011;4449;50.872;4.714;2022-08-03T05:20:50;2.95;;;2.30;;
8825;SDS011;4449;50.872;4.714;2022-08-03T05:23:18;2.47;;;2.05;;
8825;SDS011;4449;50.872;4.714;2022-08-03T05:25:46;3.47;;;2.10;;
8825;SDS011;4449;50.872;4.714;2022-08-03T05:28:14;2.00;;;1.90;;
8825;SDS011;4449;50.872;4.714;2022-08-03T05:30:43;5.18;;;2.50;;
8825;SDS011;4449;50.872;4.714;2022-08-03T05:33:11;4.00;;;2.10;;
8825;SDS011;4449;50.872;4.714;2022-08-03T05:35:38;3.53;;;2.28;;
8825;SDS011;4449;50.872;4.714;2022-08-03T05:38:06;4.03;;;2.53;;
8825;SDS011;4449;50.872;4.714;2022-08-03T05:40:34;4.35;;;2.30;;
8825;SDS011;4449;50.872;4.714;2022-08-03T05:43:02;4.47;;;2.38;;
8825;SDS011;4449;50.872;4.714;2022-08-03T05:45:29;3.35;;;2.38;;
8825;SDS011;4449;50.872;4.714;2022-08-03T05:47:59;5.28;;;2.25;;
8825;SDS011;4449;50.872;4.714;2022-08-03T05:50:26;3.13;;;2.40;;
8825;SDS011;4449;50.872;4.714;2022-08-03T05:52:54;6.50;;;2.57;;
8825;SDS011;4449;50.872;4.714;2022-08-03T05:55:23;5.30;;;2.27;;
8825;SDS011;4449;50.872;4.714;2022-08-03T05:57:50;2.93;;;1.80;;
8825;SDS011;4449;50.872;4.714;2022-08-03T06:00:18;3.13;;;2.00;;
8825;SDS011;4449;50.872;4.714;2022-08-03T06:02:46;3.53;;;2.10;;
8825;SDS011;4449;50.872;4.714;2022-08-03T06:05:15;3.37;;;2.30;;
8825;SDS011;4449;50.872;4.714;2022-08-03T06:07:43;4.40;;;1.90;;
8825;SDS011;4449;50.872;4.714;2022-08-03T06:10:11;4.75;;;2.20;;
8825;SDS011;4449;50.872;4.714;2022-08-03T06:12:39;3.40;;;2.22;;
8825;SDS011;4449;50.872;4.714;2022-08-03T06:15:07;3.70;;;2.22;;
8825;SDS011;4449;50.872;4.714;2022-08-03T06:17:43;2.03;;;1.83;;
8825;SDS011;4449;50.872;4.714;2022-08-03T06:20:11;4.77;;;2.00;;
8825;SDS011;4449;50.872;4.714;2022-08-03T06:22:40;2.03;;;1.83;;
8825;SDS011;4449;50.872;4.714;2022-08-03T06:25:07;5.18;;;2.08;;
8825;SDS011;4449;50.872;4.714;2022-08-03T06:27:35;3.10;;;2.10;;
8825;SDS011;4449;50.872;4.714;2022-08-03T06:30:05;1.88;;;1.70;;
8825;SDS011;4449;50.872;4.714;2022-08-03T06:32:33;2.28;;;1.80;;
8825;SDS011;4449;50.872;4.714;2022-08-03T06:35:01;3.50;;;1.80;;
8825;SDS011;4449;50.872;4.714;2022-08-03T06:37:29;4.25;;;2.10;;
8825;SDS011;4449;50.872;4.714;2022-08-03T06:39:58;9.45;;;2.78;;
8825;SDS011;4449;50.872;4.714;2022-08-03T06:42:26;2.95;;;2.17;;
8825;SDS011;4449;50.872;4.714;2022-08-03T06:44:53;3.57;;;2.20;;
8825;SDS011;4449;50.872;4.714;2022-08-03T06:47:21;4.07;;;2.00;;
8825;SDS011;4449;50.872;4.714;2022-08-03T06:49:49;4.22;;;2.08;;
8825;SDS011;4449;50.872;4.714;2022-08-03T06:52:17;5.30;;;2.13;;
8825;SDS011;4449;50.872;4.714;2022-08-03T06:54:45;4.03;;;2.13;;
8825;SDS011;4449;50.872;4.714;2022-08-03T06:57:14;2.53;;;1.77;;
8825;SDS011;4449;50.872;4.714;2022-08-03T06:59:43;2.28;;;1.80;;
8825;SDS011;4449;50.872;4.714;2022-08-03T07:02:11;1.98;;;1.88;;
8825;SDS011;4449;50.872;4.714;2022-08-03T07:04:39;6.38;;;2.50;;
8825;SDS011;4449;50.872;4.714;2022-08-03T07:07:06;3.90;;;2.00;;
8825;SDS011;4449;50.872;4.714;2022-08-03T07:09:34;2.40;;;1.90;;
8825;SDS011;4449;50.872;4.714;2022-08-03T07:12:02;2.95;;;2.17;;
8825;SDS011;4449;50.872;4.714;2022-08-03T07:14:32;2.88;;;1.90;;
8825;SDS011;4449;50.872;4.714;2022-08-03T07:17:00;6.35;;;2.03;;
8825;SDS011;4449;50.872;4.714;2022-08-03T07:19:28;4.53;;;1.98;;
8825;SDS011;4449;50.872;4.714;2022-08-03T07:21:55;3.50;;;1.65;;
8825;SDS011;4449;50.872;4.714;2022-08-03T07:24:23;3.20;;;1.65;;
8825;SDS011;4449;50.872;4.714;2022-08-03T07:26:51;3.45;;;1.60;;
8825;SDS011;4449;50.872;4.714;2022-08-03T07:29:19;2.60;;;1.50;;
8825;SDS011;4449;50.872;4.714;2022-08-03T07:31:48;4.60;;;1.93;;
8825;SDS011;4449;50.872;4.714;2022-08-03T07:34:15;2.80;;;1.92;;
8825;SDS011;4449;50.872;4.714;2022-08-03T07:36:43;3.17;;;1.88;;
8825;SDS011;4449;50.872;4.714;2022-08-03T07:39:11;3.38;;;1.70;;
8825;SDS011;4449;50.872;4.714;2022-08-03T07:41:38;1.70;;;1.60;;
8825;SDS011;4449;50.872;4.714;2022-08-03T07:44:06;1.70;;;1.60;;
8825;SDS011;4449;50.872;4.714;2022-08-03T07:46:34;2.13;;;1.77;;
8825;SDS011;4449;50.872;4.714;2022-08-03T07:49:03;2.25;;;1.65;;
8825;SDS011;4449;50.872;4.714;2022-08-03T07:51:31;4.60;;;1.67;;
8825;SDS011;4449;50.872;4.714;2022-08-03T07:53:59;2.03;;;1.70;;
8825;SDS011;4449;50.872;4.714;2022-08-03T07:56:26;2.08;;;1.75;;
8825;SDS011;4449;50.872;4.714;2022-08-03T07:58:54;6.20;;;1.90;;
8825;SDS011;4449;50.872;4.714;2022-08-03T08:01:22;4.13;;;1.80;;
8825;SDS011;4449;50.872;4.714;2022-08-03T08:03:50;2.00;;;1.58;;
8825;SDS011;4449;50.872;4.714;2022-08-03T08:06:19;4.10;;;1.60;;
8825;SDS011;4449;50.872;4.714;2022-08-03T08:08:47;2.63;;;1.50;;
8825;SDS011;4449;50.872;4.714;2022-08-03T08:11:15;2.93;;;1.47;;
8825;SDS011;4449;50.872;4.714;2022-08-03T08:13:43;2.70;;;1.58;;
8825;SDS011;4449;50.872;4.714;2022-08-03T08:16:10;5.10;;;1.88;;
8825;SDS011;4449;50.872;4.714;2022-08-03T08:18:38;3.38;;;1.95;;
8825;SDS011;4449;50.872;4.714;2022-08-03T08:21:06;4.03;;;2.00;;
8825;SDS011;4449;50.872;4.714;2022-08-03T08:23:39;3.67;;;1.50;;
8825;SDS011;4449;50.872;4.714;2022-08-03T08:26:06;5.13;;;1.60;;
8825;SDS011;4449;50.872;4.714;2022-08-03T08:28:34;3.95;;;2.20;;
8825;SDS011;4449;50.872;4.714;2022-08-03T08:31:02;3.70;;;1.50;;
8825;SDS011;4449;50.872;4.714;2022-08-03T08:33:30;5.50;;;1.80;;
8825;SDS011;4449;50.872;4.714;2022-08-03T08:35:59;4.63;;;1.70;;
8825;SDS011;4449;50.872;4.714;2022-08-03T08:41:43;5.57;;;2.25;;
8825;SDS011;4449;50.872;4.714;2022-08-03T08:44:15;4.00;;;1.50;;
8825;SDS011;4449;50.872;4.714;2022-08-03T08:46:42;2.30;;;1.50;;
8825;SDS011;4449;50.872;4.714;2022-08-03T08:49:10;2.38;;;1.70;;
8825;SDS011;4449;50.872;4.714;2022-08-03T08:51:39;4.33;;;1.57;;
8825;SDS011;4449;50.872;4.714;2022-08-03T08:54:07;3.17;;;1.85;;
8825;SDS011;4449;50.872;4.714;2022-08-03T08:56:34;3.55;;;1.50;;
8825;SDS011;4449;50.872;4.714;2022-08-03T08:59:05;2.35;;;1.40;;
8825;SDS011;4449;50.872;4.714;2022-08-03T09:01:33;2.25;;;1.48;;
8825;SDS011;4449;50.872;4.714;2022-08-03T09:04:01;2.42;;;1.70;;
8825;SDS011;4449;50.872;4.714;2022-08-03T09:06:29;4.53;;;1.55;;
8825;SDS011;4449;50.872;4.714;2022-08-03T09:08:58;4.35;;;1.63;;
8825;SDS011;4449;50.872;4.714;2022-08-03T09:11:25;2.33;;;1.42;;
8825;SDS011;4449;50.872;4.714;2022-08-03T09:13:53;3.20;;;1.40;;
8825;SDS011;4449;50.872;4.714;2022-08-03T09:16:22;2.20;;;1.15;;
8825;SDS011;4449;50.872;4.714;2022-08-03T09:18:51;3.97;;;1.70;;
8825;SDS011;4449;50.872;4.714;2022-08-03T09:21:20;4.05;;;1.48;;
8825;SDS011;4449;50.872;4.714;2022-08-03T09:23:48;4.22;;;1.52;;
8825;SDS011;4449;50.872;4.714;2022-08-03T09:26:19;4.13;;;1.83;;
8825;SDS011;4449;50.872;4.714;2022-08-03T09:28:53;2.78;;;1.23;;
8825;SDS011;4449;50.872;4.714;2022-08-03T09:31:29;3.88;;;1.38;;
8825;SDS011;4449;50.872;4.714;2022-08-03T09:34:01;2.45;;;1.50;;
8825;SDS011;4449;50.872;4.714;2022-08-03T09:36:36;4.03;;;1.60;;
8825;SDS011;4449;50.872;4.714;2022-08-03T09:39:04;1.73;;;1.52;;
8825;SDS011;4449;50.872;4.714;2022-08-03T09:41:35;4.17;;;1.23;;
8825;SDS011;4449;50.872;4.714;2022-08-03T09:44:03;3.63;;;1.50;;
8825;SDS011;4449;50.872;4.714;2022-08-03T09:46:38;2.30;;;1.23;;
8825;SDS011;4449;50.872;4.714;2022-08-03T09:49:13;2.50;;;1.20;;
8825;SDS011;4449;50.872;4.714;2022-08-03T09:51:42;3.60;;;1.50;;
8825;SDS011;4449;50.872;4.714;2022-08-03T09:54:09;4.40;;;1.40;;
8825;SDS011;4449;50.872;4.714;2022-08-03T09:56:41;3.00;;;1.30;;
8825;SDS011;4449;50.872;4.714;2022-08-03T09:59:09;3.00;;;1.38;;
8825;SDS011;4449;50.872;4.714;2022-08-03T10:01:38;1.60;;;1.20;;
8825;SDS011;4449;50.872;4.714;2022-08-03T10:04:15;3.72;;;1.27;;
8825;SDS011;4449;50.872;4.714;2022-08-03T10:06:43;2.70;;;1.10;;
8825;SDS011;4449;50.872;4.714;2022-08-03T10:09:12;1.45;;;1.20;;
8825;SDS011;4449;50.872;4.714;2022-08-03T10:11:40;1.67;;;1.17;;
8825;SDS011;4449;50.872;4.714;2022-08-03T10:14:09;2.60;;;1.10;;
8825;SDS011;4449;50.872;4.714;2022-08-03T10:16:44;2.22;;;1.35;;
8825;SDS011;4449;50.872;4.714;2022-08-03T10:19:12;1.27;;;1.07;;
8825;SDS011;4449;50.872;4.714;2022-08-03T10:21:45;2.45;;;1.27;;
8825;SDS011;4449;50.872;4.714;2022-08-03T10:24:14;1.17;;;1.02;;
8825;SDS011;4449;50.872;4.714;2022-08-03T10:26:43;1.15;;;1.15;;
8825;SDS011;4449;50.872;4.714;2022-08-03T10:29:11;2.30;;;1.35;;
8825;SDS011;4449;50.872;4.714;2022-08-03T10:31:45;1.80;;;1.35;;
8825;SDS011;4449;50.872;4.714;2022-08-03T10:34:15;1.38;;;1.15;;
8825;SDS011;4449;50.872;4.714;2022-08-03T10:36:44;2.03;;;1.45;;
8825;SDS011;4449;50.872;4.714;2022-08-03T10:39:13;2.13;;;1.05;;
8825;SDS011;4449;50.872;4.714;2022-08-03T10:41:42;1.43;;;1.33;;
8825;SDS011;4449;50.872;4.714;2022-08-03T10:44:12;2.88;;;1.33;;
8825;SDS011;4449;50.872;4.714;2022-08-03T10:46:40;3.30;;;1.35;;
8825;SDS011;4449;50.872;4.714;2022-08-03T10:49:09;2.40;;;1.40;;
8825;SDS011;4449;50.872;4.714;2022-08-03T11:50:57;3.00;;;1.17;;
8825;SDS011;4449;50.872;4.714;2022-08-03T11:53:25;2.33;;;1.27;;
8825;SDS011;4449;50.872;4.714;2022-08-03T11:55:56;1.13;;;1.13;;
8825;SDS011;4449;50.872;4.714;2022-08-03T11:58:25;1.55;;;1.40;;
8825;SDS011;4449;50.872;4.714;2022-08-03T12:01:01;1.40;;;1.27;;
8825;SDS011;4449;50.872;4.714;2022-08-03T12:03:30;1.60;;;1.50;;
8825;SDS011;4449;50.872;4.714;2022-08-03T12:06:00;1.45;;;1.20;;
8825;SDS011;4449;50.872;4.714;2022-08-03T12:08:29;5.57;;;1.83;;
8825;SDS011;4449;50.872;4.714;2022-08-03T12:10:58;3.85;;;1.30;;
8825;SDS011;4449;50.872;4.714;2022-08-03T12:13:25;1.85;;;1.38;;
8825;SDS011;4449;50.872;4.714;2022-08-03T12:15:54;2.60;;;1.35;;
8825;SDS011;4449;50.872;4.714;2022-08-03T12:18:21;1.15;;;1.15;;
8825;SDS011;4449;50.872;4.714;2022-08-03T12:20:50;1.50;;;1.40;;
8825;SDS011;4449;50.872;4.714;2022-08-03T12:23:20;3.47;;;1.40;;
8825;SDS011;4449;50.872;4.714;2022-08-03T12:25:47;2.75;;;1.70;;
8825;SDS011;4449;50.872;4.714;2022-08-03T12:28:16;1.30;;;1.30;;
8825;SDS011;4449;50.872;4.714;2022-08-03T12:30:46;1.60;;;1.50;;
8825;SDS011;4449;50.872;4.714;2022-08-03T12:33:18;2.50;;;1.40;;
8825;SDS011;4449;50.872;4.714;2022-08-03T12:35:46;1.90;;;1.38;;
8825;SDS011;4449;50.872;4.714;2022-08-03T12:38:20;1.63;;;1.20;;
8825;SDS011;4449;50.872;4.714;2022-08-03T12:40:54;1.65;;;1.55;;
8825;SDS011;4449;50.872;4.714;2022-08-03T12:43:22;1.50;;;1.30;;
8825;SDS011;4449;50.872;4.714;2022-08-03T12:45:50;1.55;;;1.45;;
8825;SDS011;4449;50.872;4.714;2022-08-03T12:48:17;5.00;;;1.50;;
8825;SDS011;4449;50.872;4.714;2022-08-03T12:50:45;2.10;;;1.45;;
8825;SDS011;4449;50.872;4.714;2022-08-03T12:53:13;2.20;;;1.60;;
8825;SDS011;4449;50.872;4.714;2022-08-03T12:56:01;1.45;;;1.35;;
8825;SDS011;4449;50.872;4.714;2022-08-03T12:58:30;4.00;;;1.50;;
8825;SDS011;4449;50.872;4.714;2022-08-03T13:01:01;1.38;;;1.38;;
8825;SDS011;4449;50.872;4.714;2022-08-03T13:03:28;3.67;;;1.33;;
8825;SDS011;4449;50.872;4.714;2022-08-03T13:06:09;1.52;;;1.42;;
8825;SDS011;4449;50.872;4.714;2022-08-03T13:08:37;2.42;;;1.30;;
8825;SDS011;4449;50.872;4.714;2022-08-03T13:11:19;1.53;;;1.37;;
8825;SDS011;4449;50.872;4.714;2022-08-03T13:13:47;3.40;;;1.58;;
8825;SDS011;4449;50.872;4.714;2022-08-03T13:16:15;1.30;;;1.20;;
8825;SDS011;4449;50.872;4.714;2022-08-03T13:18:43;1.92;;;1.30;;
8825;SDS011;4449;50.872;4.714;2022-08-03T13:21:12;1.35;;;1.35;;
8825;SDS011;4449;50.872;4.714;2022-08-03T13:23:40;1.88;;;1.23;;
8825;SDS011;4449;50.872;4.714;2022-08-03T13:26:08;1.30;;;1.20;;
8825;SDS011;4449;50.872;4.714;2022-08-03T13:28:37;1.30;;;1.20;;
8825;SDS011;4449;50.872;4.714;2022-08-03T13:31:05;2.03;;;1.40;;
8825;SDS011;4449;50.872;4.714;2022-08-03T13:33:33;2.15;;;1.23;;
8825;SDS011;4449;50.872;4.714;2022-08-03T13:36:01;2.40;;;1.20;;
8825;SDS011;4449;50.872;4.714;2022-08-03T13:38:29;2.42;;;1.10;;
8825;SDS011;4449;50.872;4.714;2022-08-03T13:40:57;1.40;;;1.30;;
8825;SDS011;4449;50.872;4.714;2022-08-03T13:43:25;1.33;;;1.20;;
8825;SDS011;4449;50.872;4.714;2022-08-03T13:45:54;1.65;;;1.30;;
8825;SDS011;4449;50.872;4.714;2022-08-03T13:48:21;2.00;;;1.90;;
8825;SDS011;4449;50.872;4.714;2022-08-03T13:50:49;2.95;;;1.55;;
8825;SDS011;4449;50.872;4.714;2022-08-03T13:53:16;1.30;;;1.20;;
8825;SDS011;4449;50.872;4.714;2022-08-03T13:55:44;1.08;;;1.08;;
8825;SDS011;4449;50.872;4.714;2022-08-03T13:58:12;1.90;;;1.35;;
8825;SDS011;4449;50.872;4.714;2022-08-03T14:00:40;1.70;;;1.60;;
8825;SDS011;4449;50.872;4.714;2022-08-03T14:03:09;1.27;;;1.10;;
8825;SDS011;4449;50.872;4.714;2022-08-03T14:05:37;2.10;;;1.50;;
8825;SDS011;4449;50.872;4.714;2022-08-03T14:08:05;2.17;;;1.55;;
8825;SDS011;4449;50.872;4.714;2022-08-03T14:10:33;2.00;;;1.23;;
8825;SDS011;4449;50.872;4.714;2022-08-03T14:13:02;1.15;;;1.10;;
8825;SDS011;4449;50.872;4.714;2022-08-03T14:15:30;1.70;;;1.20;;
8825;SDS011;4449;50.872;4.714;2022-08-03T14:17:57;3.05;;;1.20;;
8825;SDS011;4449;50.872;4.714;2022-08-03T14:20:29;1.40;;;1.30;;
8825;SDS011;4449;50.872;4.714;2022-08-03T14:22:57;1.40;;;1.30;;
8825;SDS011;4449;50.872;4.714;2022-08-03T14:25:24;1.40;;;1.30;;
8825;SDS011;4449;50.872;4.714;2022-08-03T14:27:52;1.67;;;1.20;;
8825;SDS011;4449;50.872;4.714;2022-08-03T14:30:20;2.15;;;1.35;;
8825;SDS011;4449;50.872;4.714;2022-08-03T14:32:48;2.03;;;1.10;;
8825;SDS011;4449;50.872;4.714;2022-08-03T14:35:15;1.50;;;1.35;;
8825;SDS011;4449;50.872;4.714;2022-08-03T14:37:45;1.80;;;0.95;;
8825;SDS011;4449;50.872;4.714;2022-08-03T14:40:12;2.10;;;1.40;;
8825;SDS011;4449;50.872;4.714;2022-08-03T14:42:40;1.45;;;1.10;;
8825;SDS011;4449;50.872;4.714;2022-08-03T14:45:08;1.40;;;1.30;;
8825;SDS011;4449;50.872;4.714;2022-08-03T14:47:37;1.50;;;1.20;;
8825;SDS011;4449;50.872;4.714;2022-08-03T14:50:05;1.65;;;1.55;;
8825;SDS011;4449;50.872;4.714;2022-08-03T14:52:33;1.40;;;1.30;;
8825;SDS011;4449;50.872;4.714;2022-08-03T14:55:02;1.42;;;1.33;;
8825;SDS011;4449;50.872;4.714;2022-08-03T14:57:30;1.27;;;1.17;;
8825;SDS011;4449;50.872;4.714;2022-08-03T14:59:58;1.10;;;1.10;;
8825;SDS011;4449;50.872;4.714;2022-08-03T15:02:26;2.97;;;1.45;;
8825;SDS011;4449;50.872;4.714;2022-08-03T15:04:54;2.00;;;1.65;;
8825;SDS011;4449;50.872;4.714;2022-08-03T15:07:22;2.00;;;1.30;;
8825;SDS011;4449;50.872;4.714;2022-08-03T15:09:50;2.60;;;1.30;;
8825;SDS011;4449;50.872;4.714;2022-08-03T15:12:19;1.50;;;1.00;;
8825;SDS011;4449;50.872;4.714;2022-08-03T15:14:47;1.30;;;1.30;;
8825;SDS011;4449;50.872;4.714;2022-08-03T15:17:15;1.27;;;1.17;;
8825;SDS011;4449;50.872;4.714;2022-08-03T15:19:42;1.50;;;1.40;;
8825;SDS011;4449;50.872;4.714;2022-08-03T15:22:10;4.67;;;1.23;;
8825;SDS011;4449;50.872;4.714;2022-08-03T15:24:39;1.27;;;1.23;;
8825;SDS011;4449;50.872;4.714;2022-08-03T15:27:07;2.70;;;1.30;;
8825;SDS011;4449;50.872;4.714;2022-08-03T15:29:36;1.30;;;1.27;;
8825;SDS011;4449;50.872;4.714;2022-08-03T15:32:04;1.40;;;1.30;;
8825;SDS011;4449;50.872;4.714;2022-08-03T15:34:32;1.20;;;1.10;;
8825;SDS011;4449;50.872;4.714;2022-08-03T15:37:00;1.20;;;1.20;;
8825;SDS011;4449;50.872;4.714;2022-08-03T15:39:28;2.03;;;1.25;;
8825;SDS011;4449;50.872;4.714;2022-08-03T15:41:56;2.00;;;1.40;;
8825;SDS011;4449;50.872;4.714;2022-08-03T15:44:23;1.23;;;1.23;;
8825;SDS011;4449;50.872;4.714;2022-08-03T15:46:52;1.38;;;1.27;;
8825;SDS011;4449;50.872;4.714;2022-08-03T15:49:20;2.03;;;1.33;;
8825;SDS011;4449;50.872;4.714;2022-08-03T15:51:48;2.22;;;1.35;;
8825;SDS011;4449;50.872;4.714;2022-08-03T15:54:16;1.17;;;1.15;;
8825;SDS011;4449;50.872;4.714;2022-08-03T15:56:43;1.20;;;1.10;;
8825;SDS011;4449;50.872;4.714;2022-08-03T15:59:11;1.33;;;1.15;;
8825;SDS011;4449;50.872;4.714;2022-08-03T16:01:39;1.17;;;1.17;;
8825;SDS011;4449;50.872;4.714;2022-08-03T16:04:09;1.90;;;1.50;;
8825;SDS011;4449;50.872;4.714;2022-08-03T16:06:36;2.80;;;1.20;;
8825;SDS011;4449;50.872;4.714;2022-08-03T16:09:04;1.37;;;1.27;;
8825;SDS011;4449;50.872;4.714;2022-08-03T16:11:32;2.03;;;1.20;;
8825;SDS011;4449;50.872;4.714;2022-08-03T16:14:00;2.03;;;1.30;;
8825;SDS011;4449;50.872;4.714;2022-08-03T16:16:28;2.05;;;1.13;;
8825;SDS011;4449;50.872;4.714;2022-08-03T16:18:56;3.50;;;1.42;;
8825;SDS011;4449;50.872;4.714;2022-08-03T16:21:25;1.45;;;1.10;;
8825;SDS011;4449;50.872;4.714;2022-08-03T16:23:53;3.22;;;1.30;;
8825;SDS011;4449;50.872;4.714;2022-08-03T16:26:20;1.13;;;1.10;;
8825;SDS011;4449;50.872;4.714;2022-08-03T16:28:48;2.37;;;1.30;;